Time;durP1;ratioP1;P1;durP2;ratioP2;P2;SDS_P1;SDS_P2;PMS_P1;PMS_P2;Temp;Humidity;BMP_temperature;BMP_pressure;BME280_temperature;BME280_humidity;BME280_pressure;Samples;Min_cycle;Max_cycle;Signal;HPM_P1;HPM_P2
2022/01/18 00:01:57;;;;;;;;;;;2.20;99.90;;;;;;5074732;28;19916;-73
2022/01/18 00:04:23;;;;;;;;;;;2.20;99.90;;;;;;5083768;28;20292;-72
2022/01/18 00:06:51;;;;;;;;;;;2.10;99.90;;;;;;5077043;28;19912;-73
2022/01/18 00:09:20;;;;;;;;;;;2.00;99.90;;;;;;5074462;28;19912;-73
2022/01/18 00:11:57;;;;;;;;;;;1.90;99.90;;;;;;5074204;28;20220;-73
2022/01/18 00:14:26;;;;;;;;;;;1.80;99.90;;;;;;5073798;28;20326;-73
2022/01/18 00:17:05;;;;;;;;;;;1.80;99.90;;;;;;5074176;28;19915;-73
2022/01/18 00:19:33;;;;;;;;;;;1.90;99.90;;;;;;5074316;28;19978;-73
2022/01/18 00:24:27;;;;;;;;;;;2.00;99.90;;;;;;5073584;28;19909;-73
2022/01/18 00:26:52;;;;;;;;;;;2.00;99.90;;;;;;5074236;28;19915;-73
2022/01/18 00:29:22;;;;;;;;;;;2.00;99.90;;;;;;5073934;28;19939;-74
2022/01/18 00:32:08;;;;;;;;;;;2.00;99.90;;;;;;5075579;28;20418;-73
2022/01/18 00:34:37;;;;;;;;;;;2.00;99.90;;;;;;5081080;28;19915;-74
2022/01/18 00:39:31;;;;;;;;;;;2.10;99.90;;;;;;5073860;28;19908;-73
2022/01/18 00:41:57;;;;;;;;;;;2.10;99.90;;;;;;5073748;28;20315;-74
2022/01/18 00:44:22;;;;;;;;;;;2.10;99.90;;;;;;5073172;28;19909;-73
2022/01/18 00:46:48;;;;;;;;;;;2.10;99.90;;;;;;5073795;28;20566;-73
2022/01/18 00:49:14;;;;;;;;;;;2.10;99.90;;;;;;5073439;28;20285;-73
2022/01/18 00:51:41;;;;;;;;;;;2.10;99.90;;;;;;5073713;28;19917;-73
2022/01/18 00:54:07;;;;;;;;;;;2.10;99.90;;;;;;5073223;28;19908;-73
2022/01/18 00:56:33;;;;;;;;;;;2.10;99.90;;;;;;5073513;28;19916;-74
2022/01/18 00:58:59;;;;;;;;;;;2.10;99.90;;;;;;5073418;28;20043;-73
2022/01/18 01:01:27;;;;;;;;;;;2.10;99.90;;;;;;5073490;28;19909;-73
2022/01/18 01:03:55;;;;;;;;;;;2.10;99.90;;;;;;5088631;28;19908;-73
2022/01/18 01:06:22;;;;;;;;;;;2.10;99.90;;;;;;5073185;28;19995;-73
2022/01/18 01:08:48;;;;;;;;;;;2.20;99.90;;;;;;5073484;28;19970;-73
2022/01/18 01:11:14;;;;;;;;;;;2.10;99.90;;;;;;5072050;28;19912;-73
2022/01/18 01:13:43;;;;;;;;;;;2.10;99.90;;;;;;5072680;28;19951;-74
2022/01/18 01:35:06;;;;;;;;;;;2.20;99.90;;;;;;5084667;28;20127;-73
2022/01/18 01:45:31;;;;;;;;;;;2.20;99.90;;;;;;5072544;28;19913;-73
2022/01/18 01:47:59;;;;;;;;;;;2.20;99.90;;;;;;5072481;28;19966;-73
2022/01/18 01:50:27;;;;;;;;;;;2.20;99.90;;;;;;5072950;28;19908;-73
2022/01/18 01:52:55;;;;;;;;;;;2.10;99.90;;;;;;5071332;28;20017;-73
2022/01/18 01:55:21;;;;;;;;;;;2.00;99.90;;;;;;5072112;28;19908;-73
2022/01/18 01:57:47;;;;;;;;;;;2.00;99.90;;;;;;5072383;28;19915;-73
2022/01/18 02:00:14;;;;;;;;;;;2.00;99.90;;;;;;5072374;28;19908;-73
2022/01/18 02:02:40;;;;;;;;;;;2.00;99.90;;;;;;5075718;28;19912;-73
2022/01/18 02:05:06;;;;;;;;;;;2.00;99.90;;;;;;5084792;28;19908;-73
2022/01/18 02:07:31;;;;;;;;;;;2.00;99.90;;;;;;5073078;28;19912;-73
2022/01/18 02:09:57;;;;;;;;;;;2.00;99.90;;;;;;5072310;28;19913;-74
2022/01/18 02:12:22;;;;;;;;;;;2.00;99.90;;;;;;5079640;28;19908;-73
2022/01/18 02:14:54;;;;;;;;;;;1.90;99.90;;;;;;5090805;28;19916;-73
2022/01/18 02:22:52;;;;;;;;;;;1.90;99.90;;;;;;5091233;28;19962;-73
2022/01/18 02:25:18;;;;;;;;;;;1.90;99.90;;;;;;5090866;28;19947;-73
2022/01/18 02:27:43;;;;;;;;;;;1.90;99.90;;;;;;5091391;28;19908;-73
2022/01/18 02:30:09;;;;;;;;;;;2.00;99.90;;;;;;5091422;28;19919;-74
2022/01/18 02:32:35;;;;;;;;;;;1.90;99.90;;;;;;5087514;28;19931;-73
2022/01/18 02:35:00;;;;;;;;;;;2.00;99.90;;;;;;5077893;28;20355;-73
2022/01/18 02:37:26;;;;;;;;;;;1.90;99.90;;;;;;5072067;28;19931;-73
2022/01/18 02:39:52;;;;;;;;;;;2.00;99.90;;;;;;5071729;28;19915;-73
2022/01/18 02:42:23;;;;;;;;;;;1.90;99.90;;;;;;5072205;28;19908;-73
2022/01/18 02:44:52;;;;;;;;;;;1.90;99.90;;;;;;5071362;28;19920;-73
2022/01/18 02:47:18;;;;;;;;;;;1.90;99.90;;;;;;5071858;28;20045;-73
2022/01/18 02:49:43;;;;;;;;;;;2.00;99.90;;;;;;5071854;28;20007;-74
2022/01/18 02:52:09;;;;;;;;;;;2.00;99.90;;;;;;5071724;28;19920;-73
2022/01/18 02:54:34;;;;;;;;;;;2.00;99.90;;;;;;5071320;28;19919;-73
2022/01/18 02:57:03;;;;;;;;;;;1.90;99.90;;;;;;5071725;28;19909;-73
2022/01/18 03:04:48;;;;;;;;;;;1.90;99.90;;;;;;5083087;28;19934;-73
2022/01/18 03:07:14;;;;;;;;;;;1.90;99.90;;;;;;5072938;28;19913;-73
2022/01/18 03:09:39;;;;;;;;;;;2.00;99.90;;;;;;5071532;28;20257;-73
2022/01/18 03:12:06;;;;;;;;;;;1.90;99.90;;;;;;5071857;28;19912;-73
2022/01/18 03:14:32;;;;;;;;;;;1.90;99.90;;;;;;5070947;28;19916;-73
2022/01/18 03:16:57;;;;;;;;;;;1.90;99.90;;;;;;5071511;28;19912;-73
2022/01/18 03:19:23;;;;;;;;;;;1.90;99.90;;;;;;5071478;28;19916;-73
2022/01/18 03:21:50;;;;;;;;;;;1.90;99.90;;;;;;5071454;28;19966;-73
2022/01/18 03:29:27;;;;;;;;;;;1.90;99.90;;;;;;5071518;28;19938;-73
2022/01/18 03:31:53;;;;;;;;;;;1.90;99.90;;;;;;5073664;28;19908;-73
2022/01/18 03:34:18;;;;;;;;;;;1.90;99.90;;;;;;5072692;28;19941;-74
2022/01/18 03:36:44;;;;;;;;;;;1.80;99.90;;;;;;5080771;28;19908;-73
2022/01/18 03:39:10;;;;;;;;;;;1.80;99.90;;;;;;5074833;28;19908;-73
2022/01/18 03:41:35;;;;;;;;;;;1.80;99.90;;;;;;5075258;28;19908;-73
2022/01/18 03:44:01;;;;;;;;;;;1.80;99.90;;;;;;5074607;28;19960;-74
2022/01/18 03:46:26;;;;;;;;;;;1.80;99.90;;;;;;5075467;28;19931;-73
2022/01/18 03:48:52;;;;;;;;;;;1.80;99.90;;;;;;5075207;28;19919;-73
2022/01/18 03:51:18;;;;;;;;;;;1.80;99.90;;;;;;5075021;28;19908;-73
2022/01/18 03:53:43;;;;;;;;;;;1.80;99.90;;;;;;5074402;28;19909;-73
2022/01/18 03:56:09;;;;;;;;;;;1.80;99.90;;;;;;5074809;28;19913;-73
2022/01/18 03:58:35;;;;;;;;;;;1.80;99.90;;;;;;5074777;28;19999;-73
2022/01/18 04:01:00;;;;;;;;;;;1.80;99.90;;;;;;5074733;28;19915;-73
2022/01/18 04:03:26;;;;;;;;;;;1.70;99.90;;;;;;5083671;28;20392;-73
2022/01/18 04:05:52;;;;;;;;;;;1.80;99.90;;;;;;5077766;28;19918;-73
2022/01/18 04:08:21;;;;;;;;;;;1.70;99.90;;;;;;5074612;28;19912;-73
2022/01/18 04:10:47;;;;;;;;;;;1.70;99.90;;;;;;5075823;28;19919;-73
2022/01/18 04:13:12;;;;;;;;;;;1.70;99.90;;;;;;5074228;28;19908;-73
2022/01/18 04:15:38;;;;;;;;;;;1.70;99.90;;;;;;5074017;28;19916;-73
2022/01/18 04:18:24;;;;;;;;;;;1.70;99.90;;;;;;5074446;28;20007;-72
2022/01/18 04:29:03;;;;;;;;;;;1.90;99.90;;;;;;5068020;28;19912;-73
2022/01/18 04:31:29;;;;;;;;;;;1.90;99.90;;;;;;5093672;28;19912;-73
2022/01/18 04:33:56;;;;;;;;;;;1.90;99.90;;;;;;5083639;28;20344;-73
2022/01/18 04:36:22;;;;;;;;;;;1.90;99.90;;;;;;5079286;28;19997;-73
2022/01/18 04:38:48;;;;;;;;;;;1.80;99.90;;;;;;5074168;28;20320;-73
2022/01/18 04:41:17;;;;;;;;;;;1.70;99.90;;;;;;5073954;28;19915;-73
2022/01/18 04:48:52;;;;;;;;;;;1.80;99.90;;;;;;5093327;28;19959;-73
2022/01/18 04:51:18;;;;;;;;;;;1.80;99.90;;;;;;5093026;28;19947;-73
2022/01/18 04:53:49;;;;;;;;;;;1.80;99.90;;;;;;5093153;28;19951;-73
2022/01/18 04:56:17;;;;;;;;;;;1.80;99.90;;;;;;5093708;28;20000;-73
2022/01/18 04:58:43;;;;;;;;;;;1.80;99.90;;;;;;5093181;28;20392;-73
2022/01/18 05:01:10;;;;;;;;;;;2.00;99.90;;;;;;5073618;28;19919;-73
2022/01/18 05:03:35;;;;;;;;;;;2.00;99.90;;;;;;5081424;28;19963;-73
2022/01/18 05:06:08;;;;;;;;;;;2.00;99.90;;;;;;5082740;28;20331;-74
2022/01/18 05:08:34;;;;;;;;;;;1.90;99.90;;;;;;5073399;28;19912;-73
2022/01/18 05:10:59;;;;;;;;;;;1.90;99.90;;;;;;5073552;28;19912;-73
2022/01/18 05:14:02;;;;;;;;;;;1.90;99.90;;;;;;5092246;28;19908;-74
2022/01/18 05:19:13;;;;;;;;;;;1.80;99.90;;;;;;5092926;28;19908;-73
2022/01/18 05:24:20;;;;;;;;;;;1.80;99.90;;;;;;5092010;28;19951;-73
2022/01/18 05:26:46;;;;;;;;;;;1.80;99.90;;;;;;5092572;28;19916;-73
2022/01/18 05:29:11;;;;;;;;;;;1.80;99.90;;;;;;5092272;28;19912;-74
2022/01/18 05:31:37;;;;;;;;;;;1.80;99.90;;;;;;5078205;28;20381;-73
2022/01/18 05:34:02;;;;;;;;;;;1.80;99.90;;;;;;5081527;28;20001;-73
2022/01/18 05:36:29;;;;;;;;;;;2.00;99.90;;;;;;5075109;28;19914;-74
2022/01/18 05:38:54;;;;;;;;;;;2.10;99.90;;;;;;5072779;28;20340;-73
2022/01/18 05:41:20;;;;;;;;;;;2.00;99.90;;;;;;5072927;28;19951;-73
2022/01/18 05:43:45;;;;;;;;;;;2.00;99.90;;;;;;5072360;28;19935;-73
2022/01/18 05:46:11;;;;;;;;;;;2.00;99.90;;;;;;5072650;28;19909;-73
2022/01/18 05:48:37;;;;;;;;;;;2.00;99.90;;;;;;5092210;28;20003;-73
2022/01/18 05:51:02;;;;;;;;;;;2.00;99.90;;;;;;5091880;28;20387;-73
2022/01/18 05:53:28;;;;;;;;;;;2.00;99.90;;;;;;5091548;28;20277;-73
2022/01/18 05:55:54;;;;;;;;;;;1.90;99.90;;;;;;5091797;28;19908;-73
2022/01/18 05:58:20;;;;;;;;;;;1.80;99.90;;;;;;5091626;28;19908;-73
2022/01/18 06:00:52;;;;;;;;;;;1.80;99.90;;;;;;5091787;28;19915;-73
2022/01/18 06:03:26;;;;;;;;;;;1.70;99.90;;;;;;5087259;28;19934;-72
2022/01/18 06:08:36;;;;;;;;;;;1.70;99.90;;;;;;5072343;28;19918;-73
2022/01/18 06:11:01;;;;;;;;;;;1.80;99.90;;;;;;5072181;28;19909;-73
2022/01/18 06:13:28;;;;;;;;;;;1.90;99.90;;;;;;5071891;28;19912;-73
2022/01/18 06:15:54;;;;;;;;;;;1.90;99.90;;;;;;5072469;28;20341;-73
2022/01/18 06:18:19;;;;;;;;;;;1.90;99.90;;;;;;5071962;28;20003;-73
2022/01/18 06:20:45;;;;;;;;;;;1.90;99.90;;;;;;5071822;28;19957;-73
2022/01/18 06:23:11;;;;;;;;;;;2.00;99.90;;;;;;5071719;28;19999;-73
2022/01/18 06:25:37;;;;;;;;;;;1.90;99.90;;;;;;5072072;28;19997;-73
2022/01/18 06:28:02;;;;;;;;;;;2.00;99.90;;;;;;5071988;28;19974;-73
2022/01/18 06:30:28;;;;;;;;;;;1.90;99.90;;;;;;5072114;28;19954;-73
2022/01/18 06:32:53;;;;;;;;;;;1.90;99.90;;;;;;5073714;28;20002;-73
2022/01/18 06:35:19;;;;;;;;;;;1.80;99.90;;;;;;5077620;28;19944;-73
2022/01/18 06:37:44;;;;;;;;;;;1.70;99.90;;;;;;5076026;28;20582;-73
2022/01/18 06:40:11;;;;;;;;;;;1.70;99.90;;;;;;5091355;28;19915;-73
2022/01/18 06:42:37;;;;;;;;;;;1.80;99.90;;;;;;5091141;28;19909;-73
2022/01/18 06:45:03;;;;;;;;;;;1.80;99.90;;;;;;5090683;28;19931;-73
2022/01/18 06:47:28;;;;;;;;;;;1.80;99.90;;;;;;5091088;28;20357;-73
2022/01/18 06:49:53;;;;;;;;;;;2.00;99.90;;;;;;5090910;28;19912;-73
2022/01/18 06:52:19;;;;;;;;;;;2.00;99.90;;;;;;5091108;28;19918;-73
2022/01/18 06:54:45;;;;;;;;;;;2.00;99.90;;;;;;5090526;28;19969;-73
2022/01/18 06:57:10;;;;;;;;;;;2.10;99.90;;;;;;5073096;28;19908;-73
2022/01/18 06:59:36;;;;;;;;;;;2.10;99.90;;;;;;5071541;28;19908;-73
2022/01/18 07:02:02;;;;;;;;;;;2.10;99.90;;;;;;5071681;28;19933;-73
2022/01/18 07:04:27;;;;;;;;;;;2.10;99.90;;;;;;5080017;28;20434;-72
2022/01/18 07:06:53;;;;;;;;;;;2.10;99.90;;;;;;5072833;28;19912;-73
2022/01/18 07:09:25;;;;;;;;;;;2.20;99.90;;;;;;5071806;28;19916;-73
2022/01/18 07:11:52;;;;;;;;;;;2.20;99.90;;;;;;5075790;28;20408;-73
2022/01/18 07:14:17;;;;;;;;;;;2.20;99.90;;;;;;5074986;28;19917;-73
2022/01/18 07:16:43;;;;;;;;;;;2.20;99.90;;;;;;5075487;28;19909;-73
2022/01/18 07:19:08;;;;;;;;;;;2.20;99.90;;;;;;5075119;28;20346;-73
2022/01/18 07:21:34;;;;;;;;;;;2.00;99.90;;;;;;5081279;28;19954;-73
2022/01/18 07:24:15;;;;;;;;;;;2.00;99.90;;;;;;5076737;28;19909;-73
2022/01/18 07:26:41;;;;;;;;;;;2.00;99.90;;;;;;5085695;28;19915;-73
2022/01/18 07:29:06;;;;;;;;;;;2.20;99.90;;;;;;5084073;28;20297;-74
2022/01/18 07:31:32;;;;;;;;;;;2.20;99.90;;;;;;5087143;28;19967;-73
2022/01/18 07:33:58;;;;;;;;;;;2.30;99.90;;;;;;5089070;28;19909;-73
2022/01/18 07:36:24;;;;;;;;;;;2.30;99.90;;;;;;5084519;28;19930;-72
2022/01/18 07:38:49;;;;;;;;;;;2.30;99.90;;;;;;5081776;28;20345;-73
2022/01/18 07:41:15;;;;;;;;;;;2.40;99.90;;;;;;5082257;28;19908;-73
2022/01/18 07:43:41;;;;;;;;;;;2.30;99.90;;;;;;5075974;28;19908;-73
2022/01/18 07:46:06;;;;;;;;;;;2.30;99.90;;;;;;5074070;28;19943;-73
2022/01/18 07:48:32;;;;;;;;;;;2.40;99.90;;;;;;5083018;28;19912;-73
2022/01/18 07:50:58;;;;;;;;;;;2.40;99.90;;;;;;5078844;28;19919;-73
2022/01/18 07:53:24;;;;;;;;;;;2.30;99.90;;;;;;5079625;28;19920;-73
2022/01/18 07:55:50;;;;;;;;;;;2.40;99.90;;;;;;5075854;28;19913;-73
2022/01/18 07:58:16;;;;;;;;;;;2.40;99.90;;;;;;5083499;28;19930;-73
2022/01/18 08:00:41;;;;;;;;;;;2.40;99.90;;;;;;5080255;28;19908;-73
2022/01/18 08:03:07;;;;;;;;;;;2.40;99.90;;;;;;5074007;28;19912;-73
2022/01/18 08:05:33;;;;;;;;;;;2.30;99.90;;;;;;5079803;28;19995;-73
2022/01/18 08:07:58;;;;;;;;;;;2.30;99.90;;;;;;5094018;28;20003;-73
2022/01/18 08:10:30;;;;;;;;;;;2.30;99.90;;;;;;5088877;28;19914;-73
2022/01/18 08:13:01;;;;;;;;;;;2.20;99.90;;;;;;5079497;28;19947;-73
2022/01/18 08:15:29;;;;;;;;;;;2.20;99.90;;;;;;5077294;28;19935;-73
2022/01/18 08:17:54;;;;;;;;;;;2.20;99.90;;;;;;5074467;28;19908;-72
2022/01/18 08:20:21;;;;;;;;;;;2.20;99.90;;;;;;5082474;28;20270;-73
2022/01/18 08:22:46;;;;;;;;;;;2.30;99.90;;;;;;5084970;28;19908;-73
2022/01/18 08:25:13;;;;;;;;;;;2.40;99.90;;;;;;5090088;28;19915;-73
2022/01/18 08:27:39;;;;;;;;;;;2.30;99.90;;;;;;5081647;28;19981;-73
2022/01/18 08:30:07;;;;;;;;;;;2.20;99.90;;;;;;5085427;28;20345;-73
2022/01/18 08:32:32;;;;;;;;;;;2.30;99.90;;;;;;5080471;28;19961;-73
2022/01/18 08:34:58;;;;;;;;;;;2.50;99.90;;;;;;5075479;28;19913;-73
2022/01/18 08:37:23;;;;;;;;;;;2.60;99.90;;;;;;5075456;28;19908;-73
2022/01/18 08:39:49;;;;;;;;;;;2.50;99.90;;;;;;5087465;28;20396;-73
2022/01/18 08:42:15;;;;;;;;;;;2.20;99.90;;;;;;5079234;28;19945;-73
2022/01/18 08:44:43;;;;;;;;;;;2.00;99.90;;;;;;5075595;28;19912;-73
2022/01/18 08:47:12;;;;;;;;;;;2.00;99.90;;;;;;5088902;28;19915;-73
2022/01/18 08:49:38;;;;;;;;;;;2.10;99.90;;;;;;5078273;28;19920;-73
2022/01/18 08:52:03;;;;;;;;;;;2.00;99.90;;;;;;5079164;28;19912;-72
2022/01/18 08:54:29;;;;;;;;;;;1.90;99.90;;;;;;5084689;28;19920;-73
2022/01/18 08:56:54;;;;;;;;;;;1.80;99.90;;;;;;5086488;28;19915;-73
2022/01/18 08:59:20;;;;;;;;;;;1.90;99.90;;;;;;5093033;28;20360;-73
2022/01/18 09:01:46;;;;;;;;;;;2.00;99.90;;;;;;5078432;28;19915;-73
2022/01/18 09:04:11;;;;;;;;;;;2.00;99.90;;;;;;5078742;28;19908;-74
2022/01/18 09:06:38;;;;;;;;;;;2.00;99.90;;;;;;5092644;28;19947;-74
2022/01/18 09:09:05;;;;;;;;;;;2.10;99.90;;;;;;5085079;28;19958;-73
2022/01/18 09:11:31;;;;;;;;;;;2.30;99.90;;;;;;5080206;28;19958;-73
2022/01/18 09:13:57;;;;;;;;;;;2.40;99.90;;;;;;5073920;28;19983;-73
2022/01/18 09:16:22;;;;;;;;;;;3.40;99.90;;;;;;5073124;28;19908;-73
2022/01/18 09:18:50;;;;;;;;;;;5.50;99.90;;;;;;5073158;28;19909;-71
2022/01/18 09:21:16;;;;;;;;;;;6.70;99.90;;;;;;5073191;28;19908;-71
2022/01/18 09:23:42;;;;;;;;;;;5.60;99.90;;;;;;5072605;28;19934;-74
2022/01/18 09:26:08;;;;;;;;;;;4.30;99.90;;;;;;5073364;28;19913;-74
2022/01/18 09:28:34;;;;;;;;;;;3.80;99.90;;;;;;5078641;28;19919;-75
2022/01/18 09:31:00;;;;;;;;;;;3.80;99.90;;;;;;5077844;28;19912;-74
2022/01/18 09:33:26;;;;;;;;;;;3.80;99.90;;;;;;5078328;28;20304;-71
2022/01/18 09:35:51;;;;;;;;;;;3.80;99.90;;;;;;5073873;28;19908;-74
2022/01/18 09:38:17;;;;;;;;;;;3.70;99.90;;;;;;5076915;28;19908;-74
2022/01/18 09:40:44;;;;;;;;;;;3.90;99.90;;;;;;5082547;28;20348;-74
2022/01/18 09:43:13;;;;;;;;;;;3.70;99.90;;;;;;5082461;28;20373;-73
2022/01/18 09:45:41;;;;;;;;;;;3.90;99.90;;;;;;5077969;28;19908;-74
2022/01/18 09:48:07;;;;;;;;;;;3.60;99.90;;;;;;5074056;28;19988;-74
2022/01/18 09:50:34;;;;;;;;;;;4.00;99.90;;;;;;5084468;28;19994;-74
2022/01/18 09:53:00;;;;;;;;;;;4.50;99.90;;;;;;5079644;28;19919;-74
2022/01/18 09:55:27;;;;;;;;;;;4.80;99.90;;;;;;5082279;28;20000;-74
2022/01/18 09:57:53;;;;;;;;;;;4.70;99.90;;;;;;5088505;28;19931;-74
2022/01/18 10:00:19;;;;;;;;;;;4.60;99.90;;;;;;5083296;28;19908;-74
2022/01/18 10:02:45;;;;;;;;;;;4.60;99.90;;;;;;5088396;28;19962;-74
2022/01/18 10:05:20;;;;;;;;;;;5.00;99.90;;;;;;5087413;28;19956;-74
2022/01/18 10:07:54;;;;;;;;;;;5.50;99.90;;;;;;5072628;28;20280;-74
2022/01/18 10:10:20;;;;;;;;;;;4.90;99.90;;;;;;5075329;28;19916;-74
2022/01/18 10:12:54;;;;;;;;;;;4.20;99.90;;;;;;5091039;28;19908;-74
2022/01/18 10:15:20;;;;;;;;;;;4.40;99.90;;;;;;5083626;28;19920;-74
2022/01/18 10:17:45;;;;;;;;;;;4.10;99.90;;;;;;5071983;28;20332;-74
2022/01/18 10:20:18;;;;;;;;;;;4.30;99.90;;;;;;5072683;28;20213;-73
2022/01/18 10:22:48;;;;;;;;;;;4.20;99.90;;;;;;5077357;28;19909;-74
2022/01/18 10:25:27;;;;;;;;;;;4.20;99.90;;;;;;5079407;28;19912;-74
2022/01/18 10:27:53;;;;;;;;;;;4.50;99.90;;;;;;5080735;28;20190;-74
2022/01/18 10:30:47;;;;;;;;;;;5.60;99.90;;;;;;5082381;28;20375;-72
2022/01/18 10:33:17;;;;;;;;;;;6.70;99.90;;;;;;5076294;28;19983;-72
2022/01/18 10:36:02;;;;;;;;;;;6.20;99.90;;;;;;5081844;28;20345;-71
2022/01/18 10:38:27;;;;;;;;;;;6.60;99.90;;;;;;5076010;28;19940;-74
2022/01/18 10:40:53;;;;;;;;;;;8.60;99.90;;;;;;5079007;28;19963;-72
2022/01/18 10:43:29;;;;;;;;;;;7.80;99.90;;;;;;5071700;28;20124;-72
2022/01/18 10:46:11;;;;;;;;;;;6.90;99.90;;;;;;5074325;28;19942;-72
2022/01/18 10:48:48;;;;;;;;;;;5.40;99.90;;;;;;5076565;28;20381;-72
2022/01/18 10:51:30;;;;;;;;;;;4.80;99.90;;;;;;5082946;28;19908;-72
2022/01/18 10:53:57;;;;;;;;;;;4.90;99.90;;;;;;5090729;28;19908;-72
2022/01/18 10:56:23;;;;;;;;;;;5.20;99.90;;;;;;5073197;28;19915;-73
2022/01/18 10:58:52;;;;;;;;;;;6.00;99.90;;;;;;5070882;28;20289;-73
2022/01/18 11:01:21;;;;;;;;;;;6.40;99.90;;;;;;5087497;28;19991;-73
2022/01/18 11:04:05;;;;;;;;;;;6.20;99.90;;;;;;5073268;28;19999;-73
2022/01/18 11:06:31;;;;;;;;;;;5.70;99.90;;;;;;5088502;28;19908;-75
2022/01/18 11:09:06;;;;;;;;;;;5.20;99.90;;;;;;5077828;28;19912;-72
2022/01/18 11:11:31;;;;;;;;;;;5.70;99.90;;;;;;5084716;28;20254;-73
2022/01/18 11:14:01;;;;;;;;;;;7.00;99.90;;;;;;5078145;28;19920;-73
2022/01/18 11:16:27;;;;;;;;;;;7.70;99.90;;;;;;5068814;28;19995;-73
2022/01/18 11:18:54;;;;;;;;;;;7.50;99.90;;;;;;5070500;28;19908;-73
2022/01/18 11:21:23;;;;;;;;;;;7.10;99.90;;;;;;5075125;28;19919;-71
2022/01/18 11:23:49;;;;;;;;;;;5.80;99.90;;;;;;5073860;28;20078;-72
2022/01/18 11:26:17;;;;;;;;;;;5.90;99.90;;;;;;5077192;28;20288;-72
2022/01/18 11:28:42;;;;;;;;;;;5.60;99.90;;;;;;5088394;28;19918;-74
2022/01/18 11:31:10;;;;;;;;;;;5.50;99.90;;;;;;5078149;28;19908;-72
2022/01/18 11:33:37;;;;;;;;;;;5.40;99.90;;;;;;5077302;28;19909;-72
2022/01/18 11:36:02;;;;;;;;;;;5.20;99.90;;;;;;5071186;28;19944;-73
2022/01/18 11:38:34;;;;;;;;;;;4.90;99.90;;;;;;5071235;28;19913;-72
2022/01/18 11:41:02;;;;;;;;;;;4.60;99.90;;;;;;5078392;28;20006;-72
2022/01/18 11:43:44;;;;;;;;;;;4.60;99.90;;;;;;5078599;28;19970;-72
2022/01/18 11:46:20;;;;;;;;;;;4.60;99.90;;;;;;5070782;28;19913;-72
2022/01/18 11:48:47;;;;;;;;;;;4.60;99.90;;;;;;5074693;28;19952;-72
2022/01/18 11:51:17;;;;;;;;;;;4.60;99.90;;;;;;5084137;28;19915;-72
2022/01/18 11:56:13;;;;;;;;;;;5.00;99.90;;;;;;5072428;28;19916;-73
2022/01/18 11:58:39;;;;;;;;;;;5.00;99.90;;;;;;5074792;28;19909;-72
2022/01/18 12:01:04;;;;;;;;;;;5.00;99.90;;;;;;5074739;28;19916;-72
2022/01/18 12:03:31;;;;;;;;;;;4.90;99.90;;;;;;5074360;28;19912;-72
2022/01/18 12:05:58;;;;;;;;;;;4.50;99.90;;;;;;5074522;28;19909;-72
2022/01/18 12:08:30;;;;;;;;;;;4.30;99.90;;;;;;5092415;28;19920;-73
2022/01/18 12:10:55;;;;;;;;;;;4.50;99.90;;;;;;5089235;28;20373;-72
2022/01/18 12:13:32;;;;;;;;;;;4.80;99.90;;;;;;5073839;28;19914;-72
2022/01/18 12:15:59;;;;;;;;;;;5.00;99.90;;;;;;5074175;28;19916;-74
2022/01/18 12:18:25;;;;;;;;;;;5.10;99.90;;;;;;5074289;28;19918;-72
2022/01/18 12:21:02;;;;;;;;;;;5.20;99.90;;;;;;5074360;28;19944;-72
2022/01/18 12:23:39;;;;;;;;;;;5.20;99.90;;;;;;5073801;28;19987;-72
2022/01/18 12:36:55;;;;;;;;;;;5.70;99.90;;;;;;5073962;28;19909;-72
2022/01/18 12:39:22;;;;;;;;;;;5.70;99.90;;;;;;5075229;28;19915;-72
2022/01/18 12:41:52;;;;;;;;;;;5.60;99.90;;;;;;5091738;28;19912;-72
2022/01/18 12:44:20;;;;;;;;;;;5.30;99.90;;;;;;5074157;28;19909;-72
2022/01/18 12:46:59;;;;;;;;;;;5.40;99.90;;;;;;5073952;28;20203;-72
2022/01/18 12:49:25;;;;;;;;;;;5.30;99.90;;;;;;5082627;28;20003;-73
2022/01/18 12:52:08;;;;;;;;;;;5.20;99.90;;;;;;5085673;28;19998;-73
2022/01/18 12:54:35;;;;;;;;;;;5.00;99.90;;;;;;5073207;28;19919;-72
2022/01/18 12:57:13;;;;;;;;;;;5.10;99.90;;;;;;5073368;28;19909;-72
2022/01/18 12:59:58;;;;;;;;;;;4.90;99.90;;;;;;5074277;28;19991;-73
2022/01/18 13:02:23;;;;;;;;;;;4.90;99.90;;;;;;5074526;28;19915;-72
2022/01/18 13:04:56;;;;;;;;;;;4.90;99.90;;;;;;5082010;28;19912;-72
2022/01/18 13:07:21;;;;;;;;;;;5.10;99.90;;;;;;5085222;28;19909;-72
2022/01/18 13:10:01;;;;;;;;;;;4.90;99.90;;;;;;5084616;28;19920;-72
2022/01/18 13:12:29;;;;;;;;;;;4.70;99.90;;;;;;5079080;28;19915;-72
2022/01/18 13:14:56;;;;;;;;;;;4.80;99.90;;;;;;5073419;28;19916;-73
2022/01/18 13:23:20;;;;;;;;;;;4.60;99.90;;;;;;5089422;28;19915;-72
2022/01/18 13:25:47;;;;;;;;;;;4.50;99.90;;;;;;5092314;28;19912;-72
2022/01/18 13:28:13;;;;;;;;;;;4.50;99.90;;;;;;5092201;28;19908;-72
2022/01/18 13:30:39;;;;;;;;;;;4.50;99.90;;;;;;5085694;28;20139;-72
2022/01/18 13:33:06;;;;;;;;;;;4.50;99.90;;;;;;5078284;28;19961;-72
2022/01/18 13:35:32;;;;;;;;;;;4.40;99.90;;;;;;5072699;28;19908;-73
2022/01/18 13:37:59;;;;;;;;;;;4.20;99.90;;;;;;5072774;28;19912;-72
2022/01/18 13:40:26;;;;;;;;;;;3.90;99.90;;;;;;5088217;28;19919;-72
2022/01/18 13:43:00;;;;;;;;;;;3.90;99.90;;;;;;5077321;28;20289;-73
2022/01/18 13:45:27;;;;;;;;;;;3.80;99.90;;;;;;5072137;28;19908;-72
2022/01/18 13:47:53;;;;;;;;;;;4.00;99.90;;;;;;5077019;28;19916;-72
2022/01/18 13:50:37;;;;;;;;;;;4.30;99.90;;;;;;5083274;28;19913;-72
2022/01/18 13:53:21;;;;;;;;;;;4.60;99.90;;;;;;5069996;28;19917;-72
2022/01/18 13:55:56;;;;;;;;;;;4.80;99.90;;;;;;5086597;28;19908;-71
2022/01/18 13:58:28;;;;;;;;;;;5.00;99.90;;;;;;5091654;28;20015;-72
2022/01/18 14:01:05;;;;;;;;;;;4.90;99.90;;;;;;5091549;28;19999;-72
2022/01/18 14:03:35;;;;;;;;;;;4.90;99.90;;;;;;5091139;28;19912;-72
2022/01/18 14:06:01;;;;;;;;;;;4.80;99.90;;;;;;5091402;28;19916;-71
2022/01/18 14:08:34;;;;;;;;;;;4.70;99.90;;;;;;5089423;28;19911;-72
2022/01/18 14:11:01;;;;;;;;;;;4.60;99.90;;;;;;5082521;28;19912;-71
2022/01/18 14:13:35;;;;;;;;;;;4.60;99.90;;;;;;5075415;28;19912;-73
2022/01/18 14:16:01;;;;;;;;;;;4.60;99.90;;;;;;5071956;28;20019;-72
2022/01/18 14:18:27;;;;;;;;;;;4.60;99.90;;;;;;5071268;28;19999;-72
2022/01/18 14:20:52;;;;;;;;;;;4.60;99.90;;;;;;5072060;28;19935;-72
2022/01/18 14:23:19;;;;;;;;;;;4.60;99.90;;;;;;5071373;28;19908;-72
2022/01/18 14:25:46;;;;;;;;;;;4.50;99.90;;;;;;5072164;28;19934;-73
2022/01/18 14:28:14;;;;;;;;;;;4.50;99.90;;;;;;5071189;28;19909;-72
2022/01/18 14:30:43;;;;;;;;;;;4.50;99.90;;;;;;5084669;28;20292;-72
2022/01/18 14:33:09;;;;;;;;;;;4.30;99.90;;;;;;5072028;28;19909;-72
2022/01/18 14:35:44;;;;;;;;;;;4.30;99.90;;;;;;5071704;28;19915;-73
2022/01/18 14:38:10;;;;;;;;;;;4.30;99.90;;;;;;5084578;28;19966;-72
2022/01/18 14:40:36;;;;;;;;;;;4.20;99.90;;;;;;5075976;28;20288;-72
2022/01/18 14:43:10;;;;;;;;;;;4.20;99.90;;;;;;5077036;28;19915;-72
2022/01/18 14:45:39;;;;;;;;;;;4.20;99.90;;;;;;5084497;28;19908;-72
2022/01/18 14:48:12;;;;;;;;;;;4.20;99.90;;;;;;5092574;28;19908;-72
2022/01/18 14:50:39;;;;;;;;;;;4.10;99.90;;;;;;5079565;28;20269;-73
2022/01/18 14:53:06;;;;;;;;;;;4.00;99.90;;;;;;5086556;28;19989;-73
2022/01/18 14:55:32;;;;;;;;;;;4.00;99.90;;;;;;5083118;28;20437;-73
2022/01/18 14:57:58;;;;;;;;;;;3.90;99.90;;;;;;5079222;28;20308;-73
2022/01/18 15:00:25;;;;;;;;;;;3.90;99.90;;;;;;5081721;28;21019;-72
2022/01/18 15:02:52;;;;;;;;;;;3.90;99.90;;;;;;5083293;28;19999;-72
2022/01/18 15:05:18;;;;;;;;;;;3.80;99.90;;;;;;5090203;28;20250;-73
2022/01/18 15:07:45;;;;;;;;;;;3.90;99.90;;;;;;5090352;28;19912;-72
2022/01/18 15:10:12;;;;;;;;;;;3.90;99.90;;;;;;5090578;28;19938;-72
2022/01/18 15:12:39;;;;;;;;;;;3.90;99.90;;;;;;5090470;28;19999;-73
2022/01/18 15:15:05;;;;;;;;;;;3.90;99.90;;;;;;5086026;28;20408;-72
2022/01/18 15:17:31;;;;;;;;;;;3.80;99.90;;;;;;5077911;28;19916;-72
2022/01/18 15:19:56;;;;;;;;;;;3.80;99.90;;;;;;5071254;28;19995;-72
2022/01/18 15:22:22;;;;;;;;;;;3.80;99.90;;;;;;5076114;28;19908;-72
2022/01/18 15:24:48;;;;;;;;;;;3.80;99.90;;;;;;5081871;28;20436;-72
2022/01/18 15:27:14;;;;;;;;;;;3.80;99.90;;;;;;5071438;28;20378;-72
2022/01/18 15:29:41;;;;;;;;;;;3.80;99.90;;;;;;5072024;28;19920;-72
2022/01/18 15:32:07;;;;;;;;;;;3.70;99.90;;;;;;5090169;28;19908;-73
2022/01/18 15:34:32;;;;;;;;;;;3.50;99.90;;;;;;5075728;28;19909;-73
2022/01/18 15:36:58;;;;;;;;;;;3.50;99.90;;;;;;5074888;28;20287;-72
2022/01/18 15:39:23;;;;;;;;;;;3.50;99.90;;;;;;5074897;28;19909;-72
2022/01/18 15:41:49;;;;;;;;;;;3.40;99.90;;;;;;5075697;28;19919;-72
2022/01/18 15:44:15;;;;;;;;;;;3.50;99.90;;;;;;5076268;28;20003;-72
2022/01/18 15:46:40;;;;;;;;;;;3.50;99.90;;;;;;5089726;28;19908;-72
2022/01/18 15:49:06;;;;;;;;;;;3.50;99.90;;;;;;5084386;28;19956;-72
2022/01/18 15:51:32;;;;;;;;;;;3.50;99.90;;;;;;5086547;28;19913;-72
2022/01/18 15:53:59;;;;;;;;;;;3.50;99.90;;;;;;5074551;28;19908;-72
2022/01/18 15:56:25;;;;;;;;;;;3.60;99.90;;;;;;5074622;28;20277;-72
2022/01/18 15:58:51;;;;;;;;;;;3.60;99.90;;;;;;5074778;28;20380;-72
2022/01/18 16:01:16;;;;;;;;;;;3.50;99.90;;;;;;5074440;28;19995;-72
2022/01/18 16:03:42;;;;;;;;;;;3.50;99.90;;;;;;5074215;28;19916;-72